createdAt,value
2023-01-03T00:00:17.287Z,98394.34
2023-01-03T00:02:18.713Z,98395.38
2023-01-03T00:04:20.164Z,98399.69
2023-01-03T00:06:21.716Z,98398.03
2023-01-03T00:08:23.015Z,98402.25
2023-01-03T00:10:24.310Z,98411.97
2023-01-03T00:12:30.854Z,98414.19
2023-01-03T00:14:32.708Z,98418.06
2023-01-03T00:16:34.054Z,98429.50
2023-01-03T00:18:35.573Z,98443.88
2023-01-03T00:20:37.895Z,98436.94
2023-01-03T00:22:39.283Z,98444.44
2023-01-03T00:24:40.643Z,98447.81
2023-01-03T00:26:41.997Z,98449.53
2023-01-03T00:28:43.324Z,98444.41
2023-01-03T00:30:44.707Z,98445.00
2023-01-03T00:32:46.039Z,98449.13
2023-01-03T00:34:47.417Z,98451.50
2023-01-03T00:36:48.749Z,98454.31
2023-01-03T00:38:50.078Z,98459.56
2023-01-03T00:40:51.630Z,98461.03
2023-01-03T00:43:11.784Z,98458.78
2023-01-03T00:45:17.502Z,98454.44
2023-01-03T00:47:21.004Z,98451.56
2023-01-03T00:49:22.360Z,98453.13
2023-01-03T00:51:23.692Z,98453.81
2023-01-03T00:53:25.005Z,98457.16
2023-01-03T00:55:26.303Z,98463.88
2023-01-03T00:57:27.655Z,98472.34
2023-01-03T00:59:28.963Z,98473.16
2023-01-03T01:01:30.417Z,98474.06
2023-01-03T01:03:31.818Z,98477.66
2023-01-03T01:05:33.213Z,98484.06
2023-01-03T01:07:34.509Z,98475.59
2023-01-03T01:09:35.871Z,98486.28
2023-01-03T01:11:37.187Z,98495.19
2023-01-03T01:13:38.560Z,98495.19
2023-01-03T01:15:39.938Z,98504.00
2023-01-03T01:17:41.308Z,98502.03
2023-01-03T01:19:42.626Z,98514.78
2023-01-03T01:21:43.955Z,98515.63
2023-01-03T01:23:45.297Z,98509.72
2023-01-03T01:25:46.620Z,98517.34
2023-01-03T01:27:47.935Z,98518.19
2023-01-03T01:29:49.341Z,98527.50
2023-01-03T01:31:50.642Z,98526.63
2023-01-03T01:33:51.943Z,98533.38
2023-01-03T01:35:53.243Z,98536.72
2023-01-03T01:37:54.541Z,98520.47
2023-01-03T01:39:56.051Z,98529.75
2023-01-03T01:42:19.757Z,98524.59
2023-01-03T01:44:54.559Z,98534.75
2023-01-03T01:46:55.864Z,98538.94
2023-01-03T01:48:57.165Z,98527.78
2023-01-03T01:50:58.472Z,98527.75
2023-01-03T01:52:59.855Z,98536.19
2023-01-03T01:55:01.154Z,98539.56
2023-01-03T01:57:02.453Z,98538.78
2023-01-03T01:59:03.748Z,98539.66
2023-01-03T02:01:05.132Z,98538.81
2023-01-03T02:03:06.681Z,98543.94
2023-01-03T02:05:08.082Z,98553.31
2023-01-03T02:07:09.431Z,98548.28
2023-01-03T02:09:10.743Z,98550.00
2023-01-03T02:11:12.054Z,98547.53
2023-01-03T02:13:13.499Z,98548.38
2023-01-03T02:15:14.799Z,98551.78
2023-01-03T02:17:16.252Z,98551.84
2023-01-03T02:19:17.657Z,98549.31
2023-01-03T02:21:20.327Z,98548.50
2023-01-03T02:23:21.764Z,98551.19
2023-01-03T02:25:23.102Z,98553.38
2023-01-03T02:27:24.398Z,98551.56
2023-01-03T02:29:25.697Z,98553.19
2023-01-03T02:31:27.054Z,98556.59
2023-01-03T02:33:28.399Z,98558.34
2023-01-03T02:35:29.723Z,98560.06
2023-01-03T02:37:31.020Z,98554.09
2023-01-03T02:39:32.324Z,98558.34
2023-01-03T02:41:33.663Z,98560.94
2023-01-03T02:43:34.963Z,98553.28
2023-01-03T02:45:36.295Z,98559.25
2023-01-03T02:47:37.644Z,98550.72
2023-01-03T02:49:38.978Z,98555.81
2023-01-03T02:51:40.291Z,98555.78
2023-01-03T02:53:41.649Z,98541.31
2023-01-03T02:55:42.991Z,98548.09
2023-01-03T02:57:44.331Z,98554.84
2023-01-03T02:59:45.661Z,98553.16
2023-01-03T03:01:51.078Z,98547.16
2023-01-03T03:03:52.767Z,98546.28
2023-01-03T03:05:54.119Z,98545.31
2023-01-03T03:07:55.417Z,98547.84
2023-01-03T03:10:15.290Z,98546.94
2023-01-03T03:12:35.444Z,98552.00
2023-01-03T03:14:36.739Z,98557.06
2023-01-03T03:16:47.321Z,98561.34
2023-01-03T03:18:48.662Z,98565.56
2023-01-03T03:21:08.731Z,98566.38
2023-01-03T03:23:28.593Z,98568.06
2023-01-03T03:25:29.888Z,98564.66
2023-01-03T03:27:49.726Z,98573.19
2023-01-03T03:29:51.139Z,98577.47
2023-01-03T03:31:52.830Z,98585.09
2023-01-03T03:33:54.172Z,98586.84
2023-01-03T03:35:55.538Z,98583.50
2023-01-03T03:37:56.939Z,98594.63
2023-01-03T03:40:16.717Z,98587.81
2023-01-03T03:42:36.573Z,98430.84
2023-01-03T03:45:00.950Z,98588.78
2023-01-03T03:47:05.477Z,98596.44
2023-01-03T03:49:25.759Z,98597.38
2023-01-03T03:51:27.055Z,98601.72
2023-01-03T03:53:28.404Z,98611.94
2023-01-03T03:55:29.712Z,98607.75
2023-01-03T03:57:31.028Z,98608.59
2023-01-03T03:59:32.338Z,98608.63
2023-01-03T04:01:33.801Z,98625.72
2023-01-03T04:03:35.182Z,98624.06
2023-01-03T04:05:36.497Z,98622.41
2023-01-03T04:07:37.825Z,98627.56
2023-01-03T04:09:39.557Z,98625.09
2023-01-03T04:11:41.334Z,98631.91
2023-01-03T04:13:42.681Z,98635.31
2023-01-03T04:15:43.975Z,98630.16
2023-01-03T04:17:45.271Z,98625.88
2023-01-03T04:19:46.642Z,98628.41
2023-01-03T04:21:47.938Z,98631.75
2023-01-03T04:23:49.229Z,98627.47
2023-01-03T04:25:50.632Z,98638.41
2023-01-03T04:27:51.958Z,98639.16
2023-01-03T04:29:53.299Z,98645.00
2023-01-03T04:31:54.764Z,98646.63
2023-01-03T04:33:56.144Z,98641.44
2023-01-03T04:35:57.453Z,98647.38
2023-01-03T04:37:58.748Z,98649.00
2023-01-03T04:40:00.134Z,98657.50
2023-01-03T04:42:01.593Z,98661.72
2023-01-03T04:44:03.316Z,98507.97
2023-01-03T04:46:04.688Z,98663.44
2023-01-03T04:48:06.052Z,98660.88
2023-01-03T04:50:08.074Z,98656.63
2023-01-03T04:52:09.375Z,98658.25
2023-01-03T04:54:10.691Z,98653.97
2023-01-03T04:56:12.033Z,98660.00
2023-01-03T04:58:13.342Z,98671.94
2023-01-03T05:00:14.647Z,98663.38
2023-01-03T05:02:16.202Z,98667.66
2023-01-03T05:04:17.664Z,98670.25
2023-01-03T05:06:19.082Z,98679.69
2023-01-03T05:08:20.407Z,98676.34
2023-01-03T05:10:21.737Z,98673.00
2023-01-03T05:12:23.031Z,98679.00
2023-01-03T05:14:24.328Z,98683.34
2023-01-03T05:16:25.693Z,98689.41
2023-01-03T05:18:27.107Z,98687.72
2023-01-03T05:20:47.291Z,98689.50
2023-01-03T05:23:07.214Z,98688.69
2023-01-03T05:25:27.157Z,98690.41
2023-01-03T05:27:28.505Z,98686.25
2023-01-03T05:29:29.799Z,98690.56
2023-01-03T05:31:31.184Z,98690.56
2023-01-03T05:33:32.489Z,98694.00
2023-01-03T05:35:33.779Z,98688.91
2023-01-03T05:37:35.076Z,98700.03
2023-01-03T05:39:36.362Z,98700.03
2023-01-03T05:41:56.365Z,98703.44
2023-01-03T05:43:57.681Z,98704.22
2023-01-03T05:45:59.075Z,98705.88
2023-01-03T05:48:00.603Z,98693.88
2023-01-03T05:50:01.951Z,98705.75
2023-01-03T05:52:03.860Z,98709.94
2023-01-03T05:54:05.158Z,98709.88
2023-01-03T05:56:06.491Z,98708.91
2023-01-03T05:58:07.803Z,98702.88
2023-01-03T06:00:09.153Z,98704.53
2023-01-03T06:02:10.539Z,98707.81
2023-01-03T06:04:12.042Z,98702.69
2023-01-03T06:06:13.451Z,98709.63
2023-01-03T06:08:14.879Z,98706.16
2023-01-03T06:10:16.182Z,98706.22
2023-01-03T06:12:17.503Z,98706.16
2023-01-03T06:14:20.071Z,98706.13
2023-01-03T06:16:40.347Z,98709.56
2023-01-03T06:18:41.704Z,98716.38
2023-01-03T06:20:43.162Z,98720.63
2023-01-03T06:22:44.583Z,98712.06
2023-01-03T06:24:45.882Z,98715.47
2023-01-03T06:26:47.230Z,98708.66
2023-01-03T06:28:48.682Z,98718.88
2023-01-03T06:30:50.158Z,98723.09
2023-01-03T06:32:51.606Z,98718.03
2023-01-03T06:34:52.898Z,98718.91
2023-01-03T06:36:54.212Z,98725.81
2023-01-03T06:38:55.608Z,98725.84
2023-01-03T06:40:56.939Z,98733.56
2023-01-03T06:42:58.321Z,98735.28
2023-01-03T06:45:18.186Z,98738.78
2023-01-03T06:47:38.019Z,98742.25
2023-01-03T06:49:57.863Z,98746.59
2023-01-03T06:52:17.679Z,98742.38
2023-01-03T06:54:18.981Z,98752.63
2023-01-03T06:56:21.874Z,98749.28
2023-01-03T06:58:23.223Z,98762.94
2023-01-03T07:00:24.526Z,98756.16
2023-01-03T07:02:26.087Z,98761.31
2023-01-03T07:04:27.615Z,98767.28
2023-01-03T07:06:29.122Z,98764.75
2023-01-03T07:08:30.549Z,98766.41
2023-01-03T07:10:31.890Z,98772.41
2023-01-03T07:12:51.748Z,98767.22
2023-01-03T07:14:53.228Z,98769.78
2023-01-03T07:16:54.538Z,98774.03
2023-01-03T07:18:55.940Z,98780.78
2023-01-03T07:20:57.274Z,98784.97
2023-01-03T07:22:58.583Z,98782.34
2023-01-03T07:24:59.934Z,98779.72
2023-01-03T07:27:01.267Z,98783.97
2023-01-03T07:29:02.612Z,98782.22
2023-01-03T07:31:03.942Z,98788.09
2023-01-03T07:33:05.304Z,98804.19
2023-01-03T07:35:06.623Z,98796.47
2023-01-03T07:37:07.913Z,98803.25
2023-01-03T07:39:09.213Z,98796.47
2023-01-03T07:41:10.881Z,98797.28
2023-01-03T07:43:31.461Z,98804.13
2023-01-03T07:45:32.755Z,98798.16
2023-01-03T07:47:34.073Z,98797.28
2023-01-03T07:49:35.495Z,98800.75
2023-01-03T07:51:36.806Z,98802.44
2023-01-03T07:53:38.131Z,98805.88
2023-01-03T07:55:39.468Z,98811.88
2023-01-03T07:57:40.810Z,98814.41
2023-01-03T07:59:42.130Z,98820.38
2023-01-03T08:01:43.536Z,98816.16
2023-01-03T08:03:44.872Z,98817.88
2023-01-03T08:05:46.191Z,98834.16
2023-01-03T08:07:47.534Z,98836.72
2023-01-03T08:10:07.335Z,98833.38
2023-01-03T08:12:27.054Z,98840.22
2023-01-03T08:14:28.355Z,98842.75
2023-01-03T08:16:29.735Z,98839.34
2023-01-03T08:18:31.129Z,98835.94
2023-01-03T08:20:32.517Z,98838.47
2023-01-03T08:22:34.040Z,98841.03
2023-01-03T08:24:35.346Z,98844.44
2023-01-03T08:26:36.699Z,98846.91
2023-01-03T08:28:38.028Z,98842.88
2023-01-03T08:30:39.347Z,98844.72
2023-01-03T08:32:40.694Z,98853.16
2023-01-03T08:34:44.382Z,98849.03
2023-01-03T08:36:45.702Z,98857.59
2023-01-03T08:38:47.033Z,98861.09
2023-01-03T08:40:48.332Z,98860.25
2023-01-03T08:42:49.751Z,98851.75
2023-01-03T08:44:51.044Z,98856.00
2023-01-03T08:46:52.431Z,98862.78
2023-01-03T08:48:53.824Z,98860.16
2023-01-03T08:50:55.138Z,98857.56
2023-01-03T08:52:56.437Z,98862.66
2023-01-03T08:54:57.751Z,98860.88
2023-01-03T08:56:59.076Z,98858.25
2023-01-03T08:59:00.382Z,98862.47
2023-01-03T09:01:02.327Z,98864.13
2023-01-03T09:03:03.777Z,98867.50
2023-01-03T09:05:05.291Z,98876.81
2023-01-03T09:07:06.701Z,98873.38
2023-01-03T09:09:08.073Z,98881.00
2023-01-03T09:11:09.426Z,98885.59
2023-01-03T09:13:10.750Z,98890.59
2023-01-03T09:15:12.089Z,98890.28
2023-01-03T09:17:13.395Z,98894.50
2023-01-03T09:19:14.732Z,98897.00
2023-01-03T09:21:16.035Z,98896.41
2023-01-03T09:23:17.381Z,98888.19
2023-01-03T09:25:19.000Z,98893.75
2023-01-03T09:27:20.358Z,98899.41
2023-01-03T09:29:21.966Z,98901.03
2023-01-03T09:31:23.392Z,98905.25
2023-01-03T09:33:24.726Z,98906.09
2023-01-03T09:35:26.032Z,98907.56
2023-01-03T09:37:27.441Z,98905.59
2023-01-03T09:39:28.740Z,98899.56
2023-01-03T09:41:30.035Z,98889.22
2023-01-03T09:43:31.336Z,98897.63
2023-01-03T09:45:32.673Z,98887.31
2023-01-03T09:47:34.189Z,98894.97
2023-01-03T09:49:43.867Z,98897.50
2023-01-03T09:52:11.928Z,98895.72
2023-01-03T09:54:31.835Z,98886.25
2023-01-03T09:56:51.823Z,98891.34
2023-01-03T09:59:11.599Z,98893.03
2023-01-03T10:01:31.527Z,98895.56
2023-01-03T10:03:51.162Z,98894.69
2023-01-03T10:05:53.407Z,98901.47
2023-01-03T10:07:54.703Z,98894.63
2023-01-03T10:09:56.019Z,98892.06
2023-01-03T10:11:57.345Z,98891.25
2023-01-03T10:13:58.709Z,98890.47
2023-01-03T10:16:00.113Z,98899.00
2023-01-03T10:18:01.474Z,98894.69
2023-01-03T10:20:02.824Z,98895.50
2023-01-03T10:22:04.151Z,98905.75
2023-01-03T10:24:05.512Z,98895.56
2023-01-03T10:26:06.828Z,98895.75
2023-01-03T10:28:08.134Z,98901.00
2023-01-03T10:30:09.452Z,98897.63
2023-01-03T10:32:10.849Z,98900.28
2023-01-03T10:34:12.219Z,98898.56
2023-01-03T10:36:13.547Z,98897.78
2023-01-03T10:38:14.873Z,98888.47
2023-01-03T10:40:16.216Z,98895.31
2023-01-03T10:42:21.339Z,98891.03
2023-01-03T10:44:22.657Z,98876.53
2023-01-03T10:46:25.529Z,98881.66
2023-01-03T10:48:27.030Z,98880.81
2023-01-03T10:50:28.337Z,98882.56
2023-01-03T10:52:29.646Z,98883.44
2023-01-03T10:54:31.124Z,98886.06
2023-01-03T10:56:32.527Z,98889.75
2023-01-03T10:58:36.724Z,98889.84
2023-01-03T11:00:38.170Z,98895.06
2023-01-03T11:02:39.671Z,98892.56
2023-01-03T11:04:41.183Z,98890.91
2023-01-03T11:06:42.479Z,98894.34
2023-01-03T11:08:46.638Z,98892.66
2023-01-03T11:10:47.948Z,98896.84
2023-01-03T11:12:49.281Z,98882.34
2023-01-03T11:14:50.712Z,98883.16
2023-01-03T11:16:52.081Z,98881.41
2023-01-03T11:18:53.392Z,98879.69
2023-01-03T11:20:54.691Z,98874.50
2023-01-03T11:22:56.043Z,98875.34
2023-01-03T11:24:57.422Z,98869.31
2023-01-03T11:26:58.719Z,98859.06
2023-01-03T11:29:00.094Z,98861.03
2023-01-03T11:31:01.439Z,98855.84
2023-01-03T11:33:02.948Z,98853.91
2023-01-03T11:37:25.612Z,98837.38
2023-01-03T11:39:27.390Z,98844.19
2023-01-03T11:41:29.349Z,98847.50
2023-01-03T11:43:30.667Z,98840.66
2023-01-03T11:45:32.075Z,98835.59
2023-01-03T11:47:33.442Z,98838.97
2023-01-03T11:49:34.751Z,98841.47
2023-01-03T11:51:36.089Z,98838.06
2023-01-03T11:53:37.437Z,98844.03
2023-01-03T11:55:38.799Z,98855.13
2023-01-03T11:57:40.150Z,98850.91
2023-01-03T11:59:41.538Z,98844.94
2023-01-03T12:01:42.927Z,98846.66
2023-01-03T12:03:44.323Z,98846.75
2023-01-03T12:05:45.805Z,98850.22
2023-01-03T12:07:48.591Z,98845.16
2023-01-03T12:09:50.436Z,98851.13
2023-01-03T12:11:51.725Z,98839.22
2023-01-03T12:13:53.381Z,98846.03
2023-01-03T12:15:54.929Z,98852.00
2023-01-03T12:17:56.318Z,98854.56
2023-01-03T12:19:57.612Z,98846.06
2023-01-03T12:21:58.961Z,98856.19
2023-01-03T12:24:00.301Z,98855.97
2023-01-03T12:26:01.594Z,98808.47
2023-01-03T12:28:02.977Z,98848.25
2023-01-03T12:30:04.335Z,98865.34
2023-01-03T12:32:05.638Z,98861.91
2023-01-03T12:34:07.087Z,98853.22
2023-01-03T12:36:08.390Z,98852.22
2023-01-03T12:38:09.728Z,98852.94
2023-01-03T12:40:11.127Z,98852.78
2023-01-03T12:42:12.463Z,98851.88
2023-01-03T12:44:13.759Z,98850.94
2023-01-03T12:46:15.130Z,98844.03
2023-01-03T12:48:16.450Z,98848.25
2023-01-03T12:50:18.188Z,98853.25
2023-01-03T12:52:19.558Z,98837.91
2023-01-03T12:54:20.996Z,98843.81
2023-01-03T12:56:22.295Z,98841.25
2023-01-03T12:58:23.625Z,98839.50
2023-01-03T13:00:24.927Z,98842.03
2023-01-03T13:02:26.357Z,98844.56
2023-01-03T13:04:27.763Z,98844.53
2023-01-03T13:06:29.102Z,98837.72
2023-01-03T13:08:30.495Z,98833.47
2023-01-03T13:10:31.805Z,98833.41
2023-01-03T13:12:38.096Z,98833.41
2023-01-03T13:14:39.379Z,98827.41
2023-01-03T13:16:40.762Z,98832.50
2023-01-03T13:18:42.092Z,98831.63
2023-01-03T13:20:49.493Z,98829.91
2023-01-03T13:22:51.881Z,98828.22
2023-01-03T13:24:53.245Z,98826.47
2023-01-03T13:26:54.551Z,98826.47
2023-01-03T13:28:55.907Z,98827.34
2023-01-03T13:30:57.270Z,98833.31
2023-01-03T13:32:58.986Z,98827.38
2023-01-03T13:35:00.334Z,98834.19
2023-01-03T13:37:01.677Z,98829.94
2023-01-03T13:39:02.984Z,98829.16
2023-01-03T13:41:19.924Z,98827.47
2023-01-03T13:43:24.339Z,98824.09
2023-01-03T13:45:25.646Z,98822.38
2023-01-03T13:47:26.987Z,98827.59
2023-01-03T13:49:28.287Z,98824.22
2023-01-03T13:51:29.685Z,98827.66
2023-01-03T13:53:31.034Z,98831.06
2023-01-03T13:55:32.338Z,98826.00
2023-01-03T13:57:33.755Z,98825.16
2023-01-03T13:59:36.195Z,98827.72
2023-01-03T14:01:37.572Z,98832.84
2023-01-03T14:03:39.027Z,98837.16
2023-01-03T14:05:40.363Z,98840.59
2023-01-03T14:07:41.691Z,98840.63
2023-01-03T14:09:43.051Z,98833.00
2023-01-03T14:11:44.392Z,98838.13
2023-01-03T14:13:45.997Z,98839.84
2023-01-03T14:15:47.386Z,98840.69
2023-01-03T14:17:48.822Z,98839.00
2023-01-03T14:19:50.901Z,98844.97
2023-01-03T14:21:52.274Z,98841.56
2023-01-03T14:24:02.079Z,98841.59
2023-01-03T14:26:03.561Z,98849.25
2023-01-03T14:28:04.869Z,98844.19
2023-01-03T14:30:06.277Z,98856.13
2023-01-03T14:32:07.636Z,98853.66
2023-01-03T14:34:11.498Z,98851.13
2023-01-03T14:36:13.702Z,98859.59
2023-01-03T14:38:15.033Z,98851.09
2023-01-03T14:40:16.419Z,98863.81
2023-01-03T14:42:17.722Z,98859.50
2023-01-03T14:44:19.026Z,98859.44
2023-01-03T14:46:20.417Z,98861.13
2023-01-03T14:48:21.742Z,98857.69
2023-01-03T14:50:25.997Z,98864.44
2023-01-03T14:52:27.286Z,98867.78
2023-01-03T14:54:28.580Z,98862.63
2023-01-03T14:56:29.920Z,98866.03
2023-01-03T14:58:31.273Z,98871.09
2023-01-03T15:00:33.629Z,98864.25
2023-01-03T15:02:35.336Z,98868.50
2023-01-03T15:04:36.832Z,98873.59
2023-01-03T15:06:38.231Z,98869.31
2023-01-03T15:08:39.551Z,98876.09
2023-01-03T15:10:40.895Z,98879.50
2023-01-03T15:12:42.196Z,98890.56
2023-01-03T15:14:43.489Z,98888.03
2023-01-03T15:16:47.863Z,98890.56
2023-01-03T15:18:49.164Z,98879.53
2023-01-03T15:20:50.481Z,98876.97
2023-01-03T15:22:51.815Z,98878.69
2023-01-03T15:24:53.726Z,98887.25
2023-01-03T15:26:55.366Z,98880.44
2023-01-03T15:28:56.722Z,98887.25
2023-01-03T15:30:58.118Z,98894.06
2023-01-03T15:32:59.478Z,98897.50
2023-01-03T15:35:00.811Z,98894.97
2023-01-03T15:37:02.149Z,98899.28
2023-01-03T15:39:03.476Z,98894.16
2023-01-03T15:41:04.789Z,98897.56
2023-01-03T15:43:23.403Z,98904.41
2023-01-03T15:45:24.957Z,98901.88
2023-01-03T15:47:26.451Z,98906.13
2023-01-03T15:49:27.884Z,98914.66
2023-01-03T15:51:29.230Z,98913.00
2023-01-03T15:53:30.565Z,98920.66
2023-01-03T15:55:31.894Z,98911.31
2023-01-03T15:57:33.223Z,98910.47
2023-01-03T15:59:39.637Z,98913.88
2023-01-03T16:01:44.485Z,98929.22
2023-01-03T16:03:45.947Z,98919.00
2023-01-03T16:05:47.364Z,98924.13
2023-01-03T16:07:48.828Z,98920.72
2023-01-03T16:09:50.163Z,98923.25
2023-01-03T16:11:51.539Z,98924.97
2023-01-03T16:13:52.863Z,98923.25
2023-01-03T16:15:54.165Z,98921.53
2023-01-03T16:17:55.480Z,98924.09
2023-01-03T16:19:56.825Z,98926.66
2023-01-03T16:22:32.863Z,98925.78
2023-01-03T16:24:19.414Z,98928.31
2023-01-03T16:26:20.827Z,98924.03
2023-01-03T16:28:25.098Z,98929.97
2023-01-03T16:30:26.538Z,98935.91
2023-01-03T16:32:28.197Z,98931.63
2023-01-03T16:34:33.700Z,98929.91
2023-01-03T16:36:37.117Z,98932.50
2023-01-03T16:38:38.438Z,98932.47
2023-01-03T16:40:39.783Z,98933.34
2023-01-03T16:42:41.135Z,98924.81
2023-01-03T16:44:42.560Z,98933.31
2023-01-03T16:46:43.955Z,98926.50
2023-01-03T16:48:47.863Z,98928.19
2023-01-03T16:50:49.232Z,98919.69
2023-01-03T16:52:50.563Z,98929.91
2023-01-03T16:54:51.868Z,98931.59
2023-01-03T16:56:53.191Z,98933.34
2023-01-03T16:58:54.539Z,98932.47
2023-01-03T17:00:55.901Z,98938.41
2023-01-03T17:03:00.125Z,98941.84
2023-01-03T17:05:01.871Z,98936.75
2023-01-03T17:07:03.213Z,98935.91
2023-01-03T17:09:04.527Z,98931.66
2023-01-03T17:11:06.367Z,98933.34
2023-01-03T17:13:12.817Z,98929.94
2023-01-03T17:15:14.578Z,98931.66
2023-01-03T17:17:15.959Z,98931.69
2023-01-03T17:19:51.277Z,98935.09
2023-01-03T17:21:38.646Z,98939.34
2023-01-03T17:23:39.981Z,98942.78
2023-01-03T17:25:41.275Z,98933.41
2023-01-03T17:27:44.943Z,98939.38
2023-01-03T17:29:46.287Z,98942.78
2023-01-03T17:31:50.635Z,98932.56
2023-01-03T17:33:51.963Z,98945.38
2023-01-03T17:35:53.821Z,98941.09
2023-01-03T17:40:27.699Z,98948.78
2023-01-03T17:42:32.665Z,98949.66
2023-01-03T17:44:34.429Z,98950.50
2023-01-03T17:47:04.864Z,98947.09
2023-01-03T17:49:24.374Z,98946.22
2023-01-03T17:51:25.692Z,98953.91
2023-01-03T17:53:27.054Z,98957.31
2023-01-03T17:55:28.390Z,98954.75
2023-01-03T17:57:29.742Z,98953.06
2023-01-03T17:59:31.044Z,98957.28
2023-01-03T18:01:32.476Z,98957.28
2023-01-03T18:03:33.931Z,98964.97
2023-01-03T18:05:35.261Z,98960.69
2023-01-03T18:07:36.591Z,98964.91
2023-01-03T18:09:37.999Z,98965.78
2023-01-03T18:11:42.302Z,98964.03
2023-01-03T18:13:43.645Z,98969.13
2023-01-03T18:15:47.942Z,98974.25
2023-01-03T18:17:49.253Z,98965.69
2023-01-03T18:19:53.702Z,98967.41
2023-01-03T18:21:55.085Z,98961.44
2023-01-03T18:23:56.428Z,98954.63
2023-01-03T18:25:58.092Z,98964.84
2023-01-03T18:27:59.398Z,98965.69
2023-01-03T18:30:03.767Z,98964.00
2023-01-03T18:32:05.182Z,98963.16
2023-01-03T18:34:06.556Z,98966.56
2023-01-03T18:36:07.855Z,98980.19
2023-01-03T18:38:09.151Z,98815.72
2023-01-03T18:40:11.477Z,98966.56
2023-01-03T18:42:31.671Z,98970.84
2023-01-03T18:44:32.983Z,98970.84
2023-01-03T18:46:34.376Z,98958.94
2023-01-03T18:48:35.767Z,98970.00
2023-01-03T18:50:37.055Z,98956.41
2023-01-03T18:52:38.366Z,98971.72
2023-01-03T18:54:39.708Z,98968.31
2023-01-03T18:56:41.009Z,98972.56
2023-01-03T18:58:42.307Z,98966.63
2023-01-03T19:00:45.805Z,98969.19
2023-01-03T19:02:50.176Z,98981.09
2023-01-03T19:04:52.196Z,98976.00
2023-01-03T19:06:53.710Z,98976.00
2023-01-03T19:08:55.044Z,98969.22
2023-01-03T19:10:59.147Z,98981.13
2023-01-03T19:13:00.459Z,98970.91
2023-01-03T19:15:01.797Z,98976.88
2023-01-03T19:17:04.517Z,98970.94
2023-01-03T19:19:06.849Z,98968.38
2023-01-03T19:21:13.837Z,98971.78
2023-01-03T19:23:15.163Z,98975.19
2023-01-03T19:25:16.504Z,98970.94
2023-01-03T19:27:17.809Z,98979.41
2023-01-03T19:29:19.936Z,98971.75
2023-01-03T19:31:21.296Z,98982.84
2023-01-03T19:33:22.681Z,98982.84
2023-01-03T19:35:23.975Z,98972.59
2023-01-03T19:37:25.359Z,98974.31
2023-01-03T19:39:28.837Z,98975.22
2023-01-03T19:41:53.557Z,98972.69
2023-01-03T19:43:54.901Z,98969.34
2023-01-03T19:45:56.358Z,98971.91
2023-01-03T19:47:57.877Z,98967.66
2023-01-03T19:49:59.548Z,98967.69
2023-01-03T19:52:00.886Z,98972.75
2023-01-03T19:54:02.183Z,98961.72
2023-01-03T19:56:03.487Z,98963.38
2023-01-03T19:58:04.800Z,98962.53
2023-01-03T20:00:06.128Z,98973.56
2023-01-03T20:02:24.530Z,98974.41
2023-01-03T20:04:26.660Z,98972.69
2023-01-03T20:06:28.101Z,98978.63
2023-01-03T20:08:29.435Z,98990.50
2023-01-03T20:10:30.728Z,98987.91
2023-01-03T20:12:32.035Z,98979.38
2023-01-03T20:14:33.321Z,98986.16
2023-01-03T20:16:35.402Z,98985.28
2023-01-03T20:18:43.380Z,98981.91
2023-01-03T20:20:44.692Z,98983.56
2023-01-03T20:25:07.304Z,98977.59
2023-01-03T20:27:08.615Z,98975.03
2023-01-03T20:29:09.938Z,98972.47
2023-01-03T20:31:13.994Z,98974.16
2023-01-03T20:33:19.756Z,98963.94
2023-01-03T20:37:42.423Z,98970.78
2023-01-03T20:39:43.725Z,98959.72
2023-01-03T20:41:45.036Z,98965.69
2023-01-03T20:43:47.589Z,98970.78
2023-01-03T20:45:51.573Z,98961.44
2023-01-03T20:47:54.277Z,98959.75
2023-01-03T20:49:55.619Z,98961.50
2023-01-03T20:51:57.596Z,98947.00
2023-01-03T20:53:58.934Z,98951.28
2023-01-03T20:56:00.289Z,98946.19
2023-01-03T20:58:02.602Z,98944.47
2023-01-03T21:00:03.906Z,98961.53
2023-01-03T21:02:05.438Z,98958.16
2023-01-03T21:04:13.066Z,98964.13
2023-01-03T21:06:14.419Z,98959.06
2023-01-03T21:08:51.185Z,98943.72
2023-01-03T21:10:58.607Z,98951.41
2023-01-03T21:12:59.922Z,98948.00
2023-01-03T21:15:01.221Z,98950.56
2023-01-03T21:17:02.517Z,98946.31
2023-01-03T21:19:03.904Z,98950.59
2023-01-03T21:21:05.208Z,98948.03
2023-01-03T21:23:09.275Z,98948.88
2023-01-03T21:25:10.579Z,98948.88
2023-01-03T21:27:11.872Z,98943.75
2023-01-03T21:29:13.157Z,98945.44
2023-01-03T21:31:14.481Z,98946.28
2023-01-03T21:33:15.815Z,98946.28
2023-01-03T21:35:17.147Z,98943.72
2023-01-03T21:37:18.440Z,98941.13
2023-01-03T21:39:19.734Z,98940.28
2023-01-03T21:41:21.079Z,98942.84
2023-01-03T21:43:22.383Z,98947.94
2023-01-03T21:45:23.704Z,98940.25
2023-01-03T21:47:25.007Z,98942.78
2023-01-03T21:49:27.335Z,98941.91
2023-01-03T21:51:37.740Z,98933.41
2023-01-03T21:53:39.504Z,98932.53
2023-01-03T21:55:40.796Z,98934.22
2023-01-03T21:57:43.385Z,98935.09
2023-01-03T21:59:44.719Z,98934.25
2023-01-03T22:02:04.895Z,98936.78
2023-01-03T22:04:15.321Z,98939.34
2023-01-03T22:06:16.648Z,98935.91
2023-01-03T22:08:18.006Z,98939.31
2023-01-03T22:10:19.400Z,98935.09
2023-01-03T22:12:20.689Z,98947.84
2023-01-03T22:14:22.054Z,98943.59
2023-01-03T22:16:23.453Z,98932.56
2023-01-03T22:18:24.806Z,98932.56
2023-01-03T22:20:26.175Z,98934.84
2023-01-03T22:22:30.663Z,98934.97
2023-01-03T22:24:31.958Z,98930.66
2023-01-03T22:26:34.538Z,98932.63
2023-01-03T22:28:36.043Z,98924.31
2023-01-03T22:30:39.147Z,98919.84
2023-01-03T22:32:40.547Z,98918.69
2023-01-03T22:34:41.879Z,98914.16
2023-01-03T22:36:43.202Z,98913.06
2023-01-03T22:38:44.507Z,98909.44
2023-01-03T22:40:46.721Z,98905.97
2023-01-03T22:42:48.031Z,98900.59
2023-01-03T22:44:49.371Z,98910.28
2023-01-03T22:46:50.706Z,98900.13
2023-01-03T22:48:52.008Z,98900.13
2023-01-03T22:50:53.314Z,98900.03
2023-01-03T22:52:54.980Z,98899.00
2023-01-03T22:54:57.329Z,98900.56
2023-01-03T22:56:58.685Z,98830.34
2023-01-03T22:59:00.018Z,98902.22
2023-01-03T23:01:01.372Z,98909.09
2023-01-03T23:03:02.864Z,98902.25
2023-01-03T23:05:04.338Z,98898.03
2023-01-03T23:07:05.634Z,98897.41
2023-01-03T23:09:07.567Z,98904.28
2023-01-03T23:11:33.472Z,98901.75
2023-01-03T23:13:35.802Z,98905.31
2023-01-03T23:15:37.086Z,98903.66
2023-01-03T23:17:56.968Z,98903.66
2023-01-03T23:19:58.380Z,98897.00
2023-01-03T23:21:59.772Z,98891.13
2023-01-03T23:24:01.077Z,98895.41
2023-01-03T23:26:02.413Z,98898.84
2023-01-03T23:28:03.862Z,98888.69
2023-01-03T23:30:05.193Z,98902.38
2023-01-03T23:32:06.519Z,98892.97
2023-01-03T23:34:08.527Z,98884.56
2023-01-03T23:36:09.832Z,98885.34
2023-01-03T23:38:11.133Z,98884.22
2023-01-03T23:40:12.462Z,98876.66
2023-01-03T23:42:13.819Z,98881.06
2023-01-03T23:44:15.222Z,98870.31
2023-01-03T23:46:16.632Z,98871.50
2023-01-03T23:48:18.050Z,98875.69
2023-01-03T23:50:19.347Z,98874.69
2023-01-03T23:52:20.635Z,98879.88
2023-01-03T23:54:21.972Z,98871.34
2023-01-03T23:56:23.282Z,98865.22
2023-01-03T23:58:24.617Z,98864.25
